Tiempo atmosférico en la estación meteorológica de Tijarafe, Santa Cruz de Tenerife (733 m.)



Fecha
DESCASC
Temp. máxima en grados centígrados (hora)
DESCASC
Temp. mínima en grados centígrados (hora)
DESCASC
Temp. media en grados centígrados
DESCASC
Racha de viento máxima en m/sg (hora)
DESCASC
Velocidad máxima media en intervalos de 10 minutos(hora)
DESCASC
Precipitaciones diarias en mm
DESCASC
Precipitaciones de 00:00 a 06:00 en mm
DESCASC
Precipitaciones de 06:00 a 12:00 en mm
DESCASC
Precipitaciones de 12:00 a 18:00 en mm
DESCASC
Precipitaciones de 18:00 a 24:00 en mm
DESCASC
10-07-2020 27.5 (00:00) 16.2 (07:10) 21.9 7.78 (07:00) 5.28 (17:00) 0 0 0 0 0
09-07-2020 34.9 (16:30) 23.7 (21:40) 29.3 6.67 (23:10) 3.33 (16:40) 0 0 0 0 0
08-07-2020 35.3 (17:40) 27.2 (00:10) 31.3 5.56 (07:40) 3.33 (04:20) 0 0 0 0 0
07-07-2020 35.3 (14:40) 27.3 (23:59) 31.3 4.44 (17:40) 2.5 (11:10) 0 0 0 0 0
06-07-2020 34.8 (16:50) 22.7 (00:00) 28.8 5 (23:59) 3.06 (23:59) 0 0 0 0 0
05-07-2020 25.5 (20:10) 15.5 (06:00) 20.5 7.22 (12:50) 5 (07:40) 0 0 0 0 0
04-07-2020 25.8 (13:50) 18.7 (21:20) 22.3 7.5 (01:50) 3.06 (14:20) 0 0 0 0 0
03-07-2020 26.6 (10:20) 18.2 (05:00) 22.4 7.22 (02:00) 3.61 (07:10) 0 0 0 0 0
02-07-2020 25.7 (14:30) 17.7 (00:00) 21.7 7.22 (04:00) 5.28 (08:50) 0 0 0 0 0
01-07-2020 23.1 (14:30) 14.5 (00:00) 18.8 6.39 (12:10) 4.44 (03:10) 0 0 0 0 0
30-06-2020 23.2 (15:40) 15 (00:00) 19.1 9.72 (12:40) 7.5 (12:10) 0 0 0 0 0
29-06-2020 24.1 (16:50) 15.1 (00:00) 19.6 9.17 (15:10) 5.83 (03:10) 0 0 0 0 0
28-06-2020 24 (16:20) 15.2 (00:00) 19.6 10.56 (08:00) 8.33 (07:50) 0 0 0 0 0
27-06-2020 23.9 (19:20) 13.6 (00:00) 18.8 9.72 (07:10) 6.39 (07:10) 0 0 0 0 0
26-06-2020 23.3 (15:00) 14.7 (00:00) 19 8.06 (08:30) 5.28 (06:50) 0 0 0 0 0
25-06-2020 23.1 (15:50) 14.4 (00:00) 18.8 8.61 (14:00) 6.39 (14:00) 0 0 0 0 0
24-06-2020 23.4 (15:40) 14.6 (00:00) 19 10.83 (01:10) 7.22 (01:30) 0 0 0 0 0
23-06-2020 23 (19:10) 14.8 (00:00) 18.9 10.28 (09:10) 7.5 (13:30) 0 0 0 0 0
22-06-2020 22.9 (20:10) 14.1 (00:00) 18.5 7.5 (17:30) 5.28 (17:30) 0 0 0 0 0
21-06-2020 21.8 (16:50) 14.3 (00:00) 18 5.83 (17:20) 3.33 (06:40) 0 0 0 0 0
20-06-2020 22.9 (16:30) 15 (00:00) 18.9 7.22 (08:00) 2.78 (16:40) 0 0 0 0 0
19-06-2020 22.4 (13:30) 15 (00:00) 18.7 5.83 (13:20) 2.22 (11:50) 0 0 0 0 0
18-06-2020 22.3 (15:50) 14.3 (05:30) 18.3 7.22 (01:10) 4.44 (01:10) 0 0 0 0 0
17-06-2020 23.7 (00:40) 15.5 (00:00) 19.6 12.5 (18:30) 8.61 (18:20) 0 0 0 0 0
16-06-2020 25.4 (13:30) 17.7 (00:00) 21.6 22.22 (19:50) 14.17 (19:50) 0.2 0 0 0 0.2
15-06-2020 24.6 (16:40) 17.3 (00:00) 20.9 16.39 (08:40) 10.28 (08:50) 3.6 0.4 3.2 0 0
14-06-2020 25.1 (20:30) 13.9 (00:00) 19.5 11.67 (23:50) 7.78 (23:50) 0 0 0 0 0
13-06-2020 21 (17:00) 12.9 (00:00) 16.9 6.67 (18:10) 3.89 (18:00) 0 0 0 0 0
12-06-2020 18.4 (14:30) 13.3 (00:00) 15.8 6.11 (15:10) 2.78 (21:00) 0 0 0 0 0
11-06-2020 20.8 (16:10) 14.8 (00:00) 17.8 6.39 (15:40) 4.17 (16:20) 0 0 0 0 0

Gráficas

Temp. máximas Temp. mínimas Temp. medias Precipitaciones Rachas de viento máximas Velocidades máximas media en intervalos de 10 minutos

Datos horarios

Fecha y hora oficial Temperatura (ºC) Velocidad del viento (km/h) Dirección del viento Racha (km/h) Dirección de racha Precipitación (mm) Presión (hPa) Tendencia (hPa) Humedad (%)
2020-07-10 23:00:00 16.8 7 Sudeste 17 Sudeste 0 -- -- 95
2020-07-10 22:00:00 17.4 8 Nordeste 19 Sudeste 0 -- -- 92
2020-07-10 21:00:00 17.6 10 Norte 22 Norte 0 -- -- 90
2020-07-10 20:00:00 21.6 10 Norte 19 Sudeste 0 -- -- 74
2020-07-10 19:00:00 22 9 Sudeste 19 Sudeste 0 -- -- 72
2020-07-10 18:00:00 22 3 Norte 28 Norte 0 -- -- 72
2020-07-10 17:00:00 21.2 19 Norte 28 Norte 0 -- -- 75
2020-07-10 16:00:00 20.8 5 Sur 24 Sudeste 0 -- -- 76
2020-07-10 15:00:00 20.9 8 Sur 25 Sur 0 -- -- 77
2020-07-10 14:00:00 21.7 5 Norte 27 Norte 0 -- -- 73
2020-07-10 13:00:00 22.5 17 Norte 24 Noroeste 0 -- -- 64
2020-07-10 12:00:00 19.4 6 Sur 23 Sur 0 -- -- 84
2020-07-10 11:00:00 18.7 9 Norte 18 Sur 0 -- -- 86
2020-07-10 10:00:00 18.4 5 Sur 17 Norte 0 -- -- 87
2020-07-10 09:00:00 17.5 5 Norte 17 Este 0 -- -- 85
2020-07-10 08:00:00 16.3 5 Este 23 Sudeste 0 -- -- 95
2020-07-10 07:00:00 16.3 10 Nordeste 28 Sudeste 0 -- -- 94
2020-07-10 06:00:00 16.6 3 Sur 13 Nordeste 0 -- -- 92
2020-07-10 05:00:00 20.4 10 Norte 14 Norte 0 -- -- 57
2020-07-10 04:00:00 23.8 3 Noroeste 9 Noroeste 0 -- -- 37
2020-07-10 03:00:00 23.1 9 Sudeste 22 Sudeste 0 -- -- 28
2020-07-10 02:00:00 23.6 3 Sur 14 Norte 0 -- -- 36
2020-07-10 01:00:00 22.7 11 Norte 21 Norte 0 -- -- 40
2020-07-10 00:00:00 27.5 3 Norte 24 Sudeste 0 -- -- 17
2020-07-09 23:00:00 26 6 Norte 23 Sudeste 0 -- -- 19
2020-07-09 22:00:00 25.7 3 Noroeste 15 Norte 0 -- -- 21
2020-07-09 21:00:00 28.1 10 Norte 14 Norte 0 -- -- 35
2020-07-09 20:00:00 32.3 4 Sudeste 10 Este 0 -- -- 13
2020-07-09 19:00:00 32.2 5 Noroeste 13 Norte 0 -- -- 27
2020-07-09 18:00:00 33.9 9 Norte 14 Noroeste 0 -- -- 20
2020-07-09 17:00:00 34.1 9 Noroeste 19 Noroeste 0 -- -- 14
2020-07-09 16:00:00 34.4 5 Sudeste 19 Sudeste 0 -- -- 13
2020-07-09 15:00:00 34.5 4 Este 12 Sudeste 0 -- -- 21
2020-07-09 14:00:00 33.5 6 Norte 14 Norte 0 -- -- 23
2020-07-09 13:00:00 33.6 6 Norte 14 Sudeste 0 -- -- 29
2020-07-09 12:00:00 34.8 4 Nordeste 10 Sur 0 -- -- 17
2020-07-09 11:00:00 33.1 2 Noroeste 9 Norte 0 -- -- 14
2020-07-09 10:00:00 31.4 4 Norte 6 Norte 0 -- -- 14
2020-07-09 09:00:00 30.9 0 Calma 10 Nordeste 0 -- -- 14
2020-07-09 08:00:00 30.1 6 Nordeste 8 Nordeste 0 -- -- 12
2020-07-09 07:00:00 30.1 4 Nordeste 9 Este 0 -- -- 13
2020-07-09 06:00:00 29.3 6 Sudeste 9 Sudeste 0 -- -- 16
2020-07-09 05:00:00 29.3 0 Calma 3 Oeste 0 -- -- 14
2020-07-09 04:00:00 28.7 2 Norte 11 Norte 0 -- -- 15
2020-07-09 03:00:00 28.9 4 Norte 6 Nordeste 0 -- -- 15
2020-07-09 02:00:00 28.5 3 Noroeste 11 Sudeste 0 -- -- 19
2020-07-09 01:00:00 29.2 2 Sudeste 14 Norte 0 -- -- 16
2020-07-09 00:00:00 29.5 10 Nordeste 13 Nordeste 0 -- -- 15
2020-07-08 23:00:00 29 9 Norte 12 Norte 0 -- -- 17
2020-07-08 22:00:00 28.4 4 Sudeste 11 Este 0 -- -- 20
2020-07-08 21:00:00 29.7 3 Noroeste 8 Norte 0 -- -- 31
2020-07-08 20:00:00 31.8 4 Norte 10 Norte 0 -- -- 17
2020-07-08 19:00:00 32.1 8 Norte 13 Noroeste 0 -- -- 18
2020-07-08 18:00:00 34.5 7 Norte 11 Oeste 0 -- -- 24
2020-07-08 17:00:00 34.2 6 Noroeste 13 Noroeste 0 -- -- 19
2020-07-08 16:00:00 34.3 7 Noroeste 15 Noroeste 0 -- -- 23
2020-07-08 15:00:00 34 6 Norte 13 Norte 0 -- -- 25
2020-07-08 14:00:00 33.8 6 Norte 11 Norte 0 -- -- 18
2020-07-08 13:00:00 34.4 4 Noroeste 10 Nordeste 0 -- -- 27
2020-07-08 12:00:00 33.9 4 Norte 9 Noroeste 0 -- -- 24
2020-07-08 11:00:00 33.8 3 Nordeste 9 Este 0 -- -- 24
2020-07-08 10:00:00 33.1 3 Noroeste 9 Sudeste 0 -- -- 15
2020-07-08 09:00:00 31.3 2 Noroeste 10 Noroeste 0 -- -- 15
2020-07-08 08:00:00 29.4 3 Noroeste 20 Sudeste 0 -- -- 16
2020-07-08 07:00:00 27.6 2 Noroeste 9 Sudeste 0 -- -- 18
2020-07-08 06:00:00 28.1 5 Sudeste 10 Este 0 -- -- 20
2020-07-08 05:00:00 28.5 4 Sur 15 Sudeste 0 -- -- 19
2020-07-08 04:00:00 28.3 6 Sudeste 12 Sudeste 0 -- -- 21
2020-07-08 03:00:00 28 4 Sudeste 8 Sudeste 0 -- -- 22
2020-07-08 02:00:00 29.4 5 Norte 8 Nordeste 0 -- -- 18
2020-07-08 01:00:00 28.4 3 Este 14 Sudeste 0 -- -- 25
2020-07-08 00:00:00 27.3 5 Sudeste 9 Sudeste 0 -- -- 29
2020-07-07 23:00:00 29 0 Calma 12 Sudeste 0 -- -- 33
2020-07-07 22:00:00 30.3 4 Sur 12 Sudeste 0 -- -- 22
2020-07-07 21:00:00 31.3 5 Sudeste 9 Sur 0 -- -- 18
2020-07-07 20:00:00 33.4 3 Este 12 Este 0 -- -- 17
2020-07-07 19:00:00 33.5 3 Sudoeste 10 Noroeste 0 -- -- 15
2020-07-07 18:00:00 30.5 5 Sudeste 16 Sudeste 0 -- -- 26
2020-07-07 17:00:00 31.9 6 Norte 11 Noroeste 0 -- -- 37
2020-07-07 16:00:00 32.8 5 Noroeste 13 Norte 0 -- -- 34
2020-07-07 15:00:00 34.8 4 Noroeste 12 Sudeste 0 -- -- 36
2020-07-07 14:00:00 33.6 3 Norte 12 Oeste 0 -- -- 25
2020-07-07 13:00:00 31.9 4 Norte 13 Norte 0 -- -- 24
2020-07-07 12:00:00 32.7 4 Norte 14 Norte 0 -- -- 21
2020-07-07 11:00:00 31.1 9 Norte 14 Norte 0 -- -- 19
2020-07-07 10:00:00 30.8 2 Noroeste 11 Sudeste 0 -- -- 16
2020-07-07 09:00:00 28.7 3 Norte 9 Este 0 -- -- 15
2020-07-07 08:00:00 28.1 3 Sudeste 8 Norte 0 -- -- 17
2020-07-07 07:00:00 28.5 6 Sudeste 8 Sudeste 0 -- -- 17
2020-07-07 06:00:00 27.9 3 Norte 12 Sudeste 0 -- -- 14
2020-07-07 05:00:00 28.1 5 Sudeste 12 Sudeste 0 -- -- 14
2020-07-07 04:00:00 29.3 4 Sudeste 8 Sur 0 -- -- 20
2020-07-07 03:00:00 29.1 3 Norte 5 Norte 0 -- -- 18
2020-07-07 02:00:00 29.3 4 Sudeste 11 Sudeste 0 -- -- 19
2020-07-07 01:00:00 28.2 3 Noroeste 13 Sudeste 0 -- -- 20
2020-07-07 00:00:00 28.8 11 Sudeste 18 Sudeste 0 -- -- 18
2020-07-06 23:00:00 29.1 5 Nordeste 11 Sudeste 0 -- -- 17
2020-07-06 22:00:00 29.1 2 Sudoeste 10 Oeste 0 -- -- 19
2020-07-06 21:00:00 29.4 6 Sur 13 Sudeste 0 -- -- 26
2020-07-06 20:00:00 31 10 Sudeste 14 Sudeste 0 -- -- 13
2020-07-06 19:00:00 32.6 3 Norte 14 Oeste 0 -- -- 33
2020-07-06 18:00:00 33.6 3 Sur 15 Noroeste 0 -- -- 16
2020-07-06 17:00:00 34.1 7 Norte 14 Sudeste 0 -- -- 24
2020-07-06 16:00:00 31.8 5 Sur 12 Sudeste 0 -- -- 16
2020-07-06 15:00:00 30.6 3 Sudeste 12 Sudeste 0 -- -- 35
2020-07-06 14:00:00 31.3 6 Norte 14 Noroeste 0 -- -- 28
2020-07-06 13:00:00 29.9 6 Norte 14 Noroeste 0 -- -- 25
2020-07-06 12:00:00 28 9 Norte 14 Noroeste 0 -- -- 39
2020-07-06 11:00:00 28.7 2 Noroeste 13 Norte 0 -- -- 30
2020-07-06 10:00:00 27.5 4 Nordeste 12 Noroeste 0 -- -- 16
2020-07-06 09:00:00 26.5 4 Noroeste 12 Noroeste 0 -- -- 16
2020-07-06 08:00:00 24.5 2 Nordeste 8 Sudeste 0 -- -- 22
2020-07-06 07:00:00 23.9 3 Nordeste 12 Este 0 -- -- 19
2020-07-06 06:00:00 23.9 2 Sudeste 9 Norte 0 -- -- 19
2020-07-06 05:00:00 23.5 3 Norte 8 Sudoeste 0 -- -- 20
2020-07-06 04:00:00 23.5 2 Noroeste 6 Sur 0 -- -- 24
2020-07-06 03:00:00 23.4 2 Nordeste 7 Nordeste 0 -- -- 24
2020-07-06 02:00:00 23.8 0 Calma 12 Sudeste 0 -- -- 23
2020-07-06 01:00:00 23.1 2 Sudeste 8 Este 0 -- -- 29
2020-07-06 00:00:00 22.7 6 Sudeste 15 Sudeste 0 -- -- 31
2020-07-05 23:00:00 23.1 4 Sudeste 15 Sur 0 -- -- 60
2020-07-05 22:00:00 22.7 6 Sudeste 17 Sudeste 0 -- -- 57
2020-07-05 21:00:00 24.3 3 Sudeste 10 Sudeste 0 -- -- 46
2020-07-05 20:00:00 25.3 4 Nordeste 10 Sudeste 0 -- -- 54
2020-07-05 19:00:00 22.7 4 Este 15 Este 0 -- -- 66
2020-07-05 18:00:00 23.7 4 Sudeste 15 Noroeste 0 -- -- 61
2020-07-05 17:00:00 24.2 3 Sur 15 Sur 0 -- -- 58
2020-07-05 16:00:00 22.8 5 Sur 15 Sudeste 0 -- -- 63
2020-07-05 15:00:00 23.3 6 Noroeste 18 Norte 0 -- -- 62
2020-07-05 14:00:00 21.9 4 Norte 20 Sur 0 -- -- 70
2020-07-05 13:00:00 21 5 Nordeste 26 Sudeste 0 -- -- 71
2020-07-05 12:00:00 20.4 3 Norte 22 Norte 0 -- -- 75
2020-07-05 11:00:00 19.3 15 Norte 22 Norte 0 -- -- 76
2020-07-05 10:00:00 18.5 5 Este 18 Sur 0 -- -- 76
2020-07-05 09:00:00 16.6 6 Nordeste 19 Noroeste 0 -- -- 84
2020-07-05 08:00:00 17.3 9 Nordeste 21 Nordeste 0 -- -- 70
2020-07-05 07:00:00 17.6 5 Nordeste 19 Sudeste 0 -- -- 56
2020-07-05 06:00:00 15.5 7 Norte 17 Norte 0 -- -- 93
2020-07-05 05:00:00 16.8 5 Nordeste 18 Norte 0 -- -- 73
2020-07-05 04:00:00 16.5 7 Sudeste 22 Sudeste 0 -- -- 82
2020-07-05 03:00:00 18.8 8 Sudeste 14 Sudeste 0 -- -- 72
2020-07-05 02:00:00 18.3 7 Nordeste 14 Sudeste 0 -- -- 63
2020-07-05 01:00:00 20.8 8 Sudeste 17 Sudeste 0 -- -- 55
2020-07-05 00:00:00 21.4 4 Sudeste 7 Sudeste 0 -- -- 47
2020-07-04 23:00:00 20 0 Calma 26 Sudeste 0 -- -- 52
2020-07-04 22:00:00 19.4 5 Sur 15 Sudeste 0 -- -- 76
2020-07-04 21:00:00 19.2 5 Norte 13 Norte 0 -- -- 76
2020-07-04 20:00:00 20.5 7 Sudeste 17 Sudeste 0 -- -- 73
2020-07-04 19:00:00 21.4 6 Oeste 17 Norte 0 -- -- 69
2020-07-04 18:00:00 21.4 11 Norte 18 Norte 0 -- -- 70
2020-07-04 17:00:00 22.2 6 Sur 21 Sudeste 0 -- -- 66
2020-07-04 16:00:00 23.5 4 Nordeste 14 Este 0 -- -- 61
2020-07-04 15:00:00 24 5 Norte 17 Norte 0 -- -- 63
2020-07-04 14:00:00 25.7 6 Sudeste 24 Este 0 -- -- 50
2020-07-04 13:00:00 24.2 7 Nordeste 17 Nordeste 0 -- -- 57
2020-07-04 12:00:00 21.5 5 Norte 15 Sudeste 0 -- -- 70
2020-07-04 11:00:00 21.4 8 Nordeste 17 Nordeste 0 -- -- 68
2020-07-04 10:00:00 23.4 4 Nordeste 9 Sudeste 0 -- -- 57
2020-07-04 09:00:00 21.8 2 Sudoeste 19 Sudeste 0 -- -- 38
2020-07-04 08:00:00 20.8 4 Nordeste 12 Este 0 -- -- 35
2020-07-04 07:00:00 21.3 4 Sur 11 Sur 0 -- -- 30
2020-07-04 06:00:00 19.2 6 Sur 17 Sur 0 -- -- 48
2020-07-04 05:00:00 21.1 3 Este 22 Sudeste 0 -- -- 42
2020-07-04 04:00:00 23.2 5 Nordeste 14 Nordeste 0 -- -- 20
2020-07-04 03:00:00 21.3 4 Norte 17 Oeste 0 -- -- 42
2020-07-04 02:00:00 22.4 6 Norte 27 Sudeste 0 -- -- 30
2020-07-04 01:00:00 21.9 3 Sudeste 17 Noroeste 0 -- -- 35
2020-07-04 00:00:00 20.5 6 Norte 13 Noroeste 0 -- -- 58
2020-07-03 23:00:00 21 3 Norte 15 Norte 0 -- -- 59
2020-07-03 22:00:00 21.3 4 Nordeste 15 Sur 0 -- -- 67
2020-07-03 21:00:00 22.6 5 Noroeste 21 Sudeste 0 -- -- 64
2020-07-03 20:00:00 22.3 4 Nordeste 16 Norte 0 -- -- 69
2020-07-03 19:00:00 23.5 8 Nordeste 21 Sudoeste 0 -- -- 66
2020-07-03 18:00:00 24.1 7 Nordeste 21 Sudeste 0 -- -- 62
2020-07-03 17:00:00 24.8 6 Norte 20 Norte 0 -- -- 59
2020-07-03 16:00:00 25 10 Norte 19 Sur 0 -- -- 61
2020-07-03 15:00:00 24.2 7 Nordeste 22 Sudeste 0 -- -- 59
2020-07-03 14:00:00 24.5 4 Noroeste 17 Noroeste 0 -- -- 61
2020-07-03 13:00:00 23.1 10 Norte 20 Norte 0 -- -- 66
2020-07-03 12:00:00 22 5 Este 21 Sur 0 -- -- 68
2020-07-03 11:00:00 23 7 Nordeste 19 Este 0 -- -- 60
2020-07-03 10:00:00 26.2 5 Sudeste 12 Sudeste 0 -- -- 19
2020-07-03 09:00:00 23.2 4 Nordeste 13 Sudeste 0 -- -- 38
2020-07-03 08:00:00 22.3 4 Noroeste 21 Norte 0 -- -- 28
2020-07-03 07:00:00 22 12 Norte 17 Norte 0 -- -- 28
2020-07-03 06:00:00 23 4 Sudeste 19 Sudeste 0 -- -- 29
2020-07-03 05:00:00 18.2 4 Noroeste 15 Sudeste 0 -- -- 57
2020-07-03 04:00:00 19.9 4 Noroeste 12 Sudeste 0 -- -- 69
2020-07-03 03:00:00 22.3 4 Sudeste 11 Sur 0 -- -- 33
2020-07-03 02:00:00 21.2 8 Sur 26 Sudeste 0 -- -- 53
2020-07-03 01:00:00 19 6 Norte 12 Nordeste 0 -- -- 65
2020-07-03 00:00:00 21 4 Norte 17 Sudeste 0 -- -- 62
2020-07-02 23:00:00 19.3 6 Noroeste 18 Norte 0 -- -- 79
2020-07-02 22:00:00 21 0 Calma 15 Sudeste 0 -- -- 69
2020-07-02 21:00:00 20.3 7 Sudeste 20 Sudeste 0 -- -- 75
2020-07-02 20:00:00 21.8 6 Este 19 Norte 0 -- -- 67
2020-07-02 19:00:00 24.3 8 Norte 18 Noroeste 0 -- -- 61
2020-07-02 18:00:00 21.6 6 Sudeste 21 Sudeste 0 -- -- 69
2020-07-02 17:00:00 23.5 9 Sur 24 Sur 0 -- -- 62
2020-07-02 16:00:00 23.6 7 Norte 18 Nordeste 0 -- -- 63
2020-07-02 15:00:00 22.8 8 Sur 17 Norte 0 -- -- 68
2020-07-02 14:00:00 21.7 8 Sur 22 Sudeste 0 -- -- 71
2020-07-02 13:00:00 21.3 7 Norte 22 Norte 0 -- -- 76
2020-07-02 12:00:00 24.1 4 Norte 15 Sur 0 -- -- 60
2020-07-02 11:00:00 22.4 5 Norte 17 Noroeste 0 -- -- 63
2020-07-02 10:00:00 19.5 9 Sudeste 22 Norte 0 -- -- 70
2020-07-02 09:00:00 19 18 Norte 23 Norte 0 -- -- 60
2020-07-02 08:00:00 19.4 5 Oeste 15 Norte 0 -- -- 40
2020-07-02 07:00:00 18 5 Noroeste 20 Nordeste 0 -- -- 53
2020-07-02 06:00:00 17.9 10 Norte 17 Norte 0 -- -- 59
2020-07-02 05:00:00 19.3 4 Sur 21 Sudeste 0 -- -- 42
2020-07-02 04:00:00 18.4 11 Sudeste 26 Sudeste 0 -- -- 48
2020-07-02 03:00:00 21 15 Norte 21 Norte 0 -- -- 36
2020-07-02 02:00:00 20.8 3 Nordeste 19 Sudeste 0 -- -- 33
2020-07-02 01:00:00 19 8 Norte 24 Sudeste 0 -- -- 55
2020-07-02 00:00:00 18.1 5 Norte 14 Norte 0 -- -- 76
2020-07-01 23:00:00 20 4 Norte 17 Sudeste 0 -- -- 71
2020-07-01 22:00:00 21.8 7 Sudeste 17 Sudeste 0 -- -- 52
2020-07-01 21:00:00 18.9 6 Sudeste 17 Norte 0 -- -- 78
2020-07-01 20:00:00 20.7 12 Norte 18 Norte 0 -- -- 73
2020-07-01 19:00:00 20.9 5 Sudeste 20 Sur 0 -- -- 73
2020-07-01 18:00:00 21.7 6 Sur 17 Sudeste 0 -- -- 71
2020-07-01 17:00:00 21.9 6 Noroeste 20 Norte 0 -- -- 71
2020-07-01 16:00:00 22.5 6 Noroeste 18 Oeste 0 -- -- 64
2020-07-01 15:00:00 21.7 6 Oeste 17 Oeste 0 -- -- 68
2020-07-01 14:00:00 21.5 5 Noroeste 14 Sudoeste 0 -- -- 71
2020-07-01 13:00:00 20 8 Norte 23 Noroeste 0 -- -- 78
2020-07-01 12:00:00 19.4 12 Norte 19 Noroeste 0 -- -- 81
2020-07-01 11:00:00 18.5 5 Oeste 21 Oeste 0 -- -- 85
2020-07-01 10:00:00 17.6 7 Nordeste 17 Nordeste 0 -- -- 85
2020-07-01 09:00:00 16.2 3 Norte 12 Nordeste 0 -- -- 92
2020-07-01 08:00:00 14.7 7 Nordeste 15 Norte 0 -- -- 97
2020-07-01 07:00:00 15.3 3 Nordeste 15 Sudeste 0 -- -- 86
2020-07-01 06:00:00 15.7 7 Sudeste 17 Este 0 -- -- 91
2020-07-01 05:00:00 15.7 4 Nordeste 12 Nordeste 0 -- -- 94
2020-07-01 04:00:00 15.6 11 Nordeste 21 Nordeste 0 -- -- 94
2020-07-01 03:00:00 15.9 13 Nordeste 17 Nordeste 0 -- -- 93
2020-07-01 02:00:00 16.5 2 Norte 8 Nordeste 0 -- -- 93
2020-07-01 01:00:00 16.6 3 Noroeste 11 Oeste 0 -- -- 95
2020-07-01 00:00:00 16.5 0 Calma 14 Norte 0 -- -- 95
2020-06-30 23:00:00 16.4 10 Norte 20 Norte 0 -- -- 95
2020-06-30 22:00:00 17.2 10 Norte 20 Nordeste 0 -- -- 91
2020-06-30 21:00:00 18.9 3 Sur 15 Nordeste 0 -- -- 81
2020-06-30 20:00:00 20.8 6 Nordeste 24 Sudoeste 0 -- -- 74
2020-06-30 19:00:00 19.3 6 Sudoeste 26 Norte 0 -- -- 80
2020-06-30 18:00:00 18.1 18 Norte 26 Norte 0 -- -- 83
2020-06-30 17:00:00 20.8 15 Noroeste 26 Noroeste 0 -- -- 74
2020-06-30 16:00:00 22.3 10 Oeste 26 Sudoeste 0 -- -- 66
2020-06-30 15:00:00 23.1 6 Norte 33 Sudoeste 0 -- -- 61
2020-06-30 14:00:00 22.6 6 Norte 21 Noroeste 0 -- -- 64
2020-06-30 13:00:00 19.5 14 Norte 35 Norte 0 -- -- 76
2020-06-30 12:00:00 18.7 25 Norte 34 Norte 0 -- -- 80
2020-06-30 11:00:00 18.7 10 Noroeste 21 Norte 0 -- -- 79
2020-06-30 10:00:00 18.1 7 Nordeste 19 Norte 0 -- -- 83
2020-06-30 09:00:00 16.7 8 Norte 24 Nordeste 0 -- -- 82
2020-06-30 08:00:00 15.3 21 Nordeste 29 Norte 0 -- -- 94
2020-06-30 07:00:00 15.3 10 Norte 17 Norte 0 -- -- 86
2020-06-30 06:00:00 15.2 6 Noroeste 16 Nordeste 0 -- -- 94
2020-06-30 05:00:00 15.1 4 Norte 14 Norte 0 -- -- 94
2020-06-30 04:00:00 15.5 13 Norte 15 Norte 0 -- -- 94
2020-06-30 03:00:00 15.7 7 Norte 12 Noroeste -- -- -- 91
2020-06-30 02:00:00 16 6 Norte 14 Nordeste 0 -- -- 94
2020-06-30 01:00:00 16.5 5 Norte 19 Norte 0 -- -- 90
2020-06-30 00:00:00 16.6 15 Norte 21 Norte 0 -- -- 91
2020-06-29 23:00:00 17 3 Norte 13 Nordeste 0 -- -- 92
2020-06-29 22:00:00 17.7 5 Nordeste 12 Norte 0 -- -- 91
2020-06-29 21:00:00 18.6 9 Norte 22 Nordeste 0 -- -- 85
2020-06-29 20:00:00 22 5 Sur 19 Sudoeste 0 -- -- 67
2020-06-29 19:00:00 23.3 9 Norte 24 Norte 0 -- -- 60
2020-06-29 18:00:00 21.4 14 Norte 24 Norte 0 -- -- 68
2020-06-29 17:00:00 23.5 6 Norte 25 Sudoeste 0 -- -- 64
2020-06-29 16:00:00 22.5 10 Noroeste 33 Norte 0 -- -- 66
2020-06-29 15:00:00 20.1 17 Noroeste 28 Norte 0 -- -- 76
2020-06-29 14:00:00 23.1 5 Norte 24 Oeste 0 -- -- 65
2020-06-29 13:00:00 21.5 8 Norte 29 Norte 0 -- -- 68
2020-06-29 12:00:00 17.9 21 Norte 29 Norte 0 -- -- 86
2020-06-29 11:00:00 19.5 7 Nordeste 28 Sudoeste 0 -- -- 76
2020-06-29 10:00:00 18.5 5 Nordeste 22 Norte 0 -- -- 81
2020-06-29 09:00:00 16.1 18 Norte 28 Nordeste 0 -- -- 89
2020-06-29 08:00:00 15.6 6 Nordeste 28 Noroeste 0 -- -- 91
2020-06-29 07:00:00 15.2 2 Norte 18 Norte 0 -- -- 88
2020-06-29 06:00:00 15.4 14 Norte 18 Norte 0 -- -- 87
2020-06-29 05:00:00 15.7 9 Norte 26 Noroeste 0 -- -- 90
2020-06-29 04:00:00 15.5 4 Sudeste 26 Norte 0 -- -- 90
2020-06-29 03:00:00 15.5 18 Norte 25 Norte 0 -- -- 88
2020-06-29 02:00:00 16.1 6 Sur 22 Nordeste 0 -- -- 91
2020-06-29 01:00:00 16.8 3 Sur 15 Norte 0 -- -- 84
2020-06-29 00:00:00 16.3 11 Norte 14 Norte 0 -- -- 92
2020-06-28 23:00:00 16.9 5 Norte 12 Nordeste 0 -- -- 93
2020-06-28 22:00:00 17.2 3 Norte 13 Norte 0 -- -- 89
2020-06-28 21:00:00 20.1 6 Norte 21 Noroeste 0 -- -- 77
2020-06-28 20:00:00 21.7 6 Norte 18 Norte 0 -- -- 72
2020-06-28 19:00:00 18.5 9 Norte 32 Norte 0 -- -- 86
2020-06-28 18:00:00 20.2 20 Norte 27 Norte 0 -- -- 79
2020-06-28 17:00:00 22.1 5 Sur 23 Sudeste 0 -- -- 71
2020-06-28 16:00:00 23.9 7 Norte 32 Norte 0 -- -- 64
2020-06-28 15:00:00 19.4 25 Norte 35 Noroeste 0 -- -- 82
2020-06-28 14:00:00 21.3 10 Noroeste 27 Sudeste 0 -- -- 72
2020-06-28 13:00:00 22.2 7 Nordeste 24 Sur 0 -- -- 70
2020-06-28 12:00:00 19.5 3 Norte 24 Norte 0 -- -- 81
2020-06-28 11:00:00 18.7 18 Norte 25 Norte 0 -- -- 81
2020-06-28 10:00:00 18.5 7 Nordeste 21 Nordeste 0 -- -- 81
2020-06-28 09:00:00 16.8 4 Norte 34 Norte 0 -- -- 75
2020-06-28 08:00:00 15.3 30 Norte 38 Norte 0 -- -- 89
2020-06-28 07:00:00 15.9 10 Nordeste 16 Nordeste 0 -- -- 69
2020-06-28 06:00:00 15.2 6 Norte 16 Norte 0 -- -- 84
2020-06-28 05:00:00 15.8 4 Nordeste 30 Norte 0 -- -- 73
2020-06-28 04:00:00 16.1 22 Norte 27 Nordeste 0 -- -- 70
2020-06-28 03:00:00 15.5 7 Norte 23 Este 0 -- -- 88
2020-06-28 02:00:00 15.4 3 Nordeste 31 Nordeste 0 -- -- 87
2020-06-28 01:00:00 16.3 22 Norte 35 Nordeste 0 -- -- 87
2020-06-28 00:00:00 16.6 5 Nordeste 17 Sur 0 -- -- 79
2020-06-27 23:00:00 16.8 6 Nordeste 16 Noroeste 0 -- -- 86
2020-06-27 22:00:00 16.7 14 Norte 24 Norte 0 -- -- 86
2020-06-27 21:00:00 20.5 13 Norte 18 Norte 0 -- -- 70
2020-06-27 20:00:00 21.2 7 Sur 18 Sudeste 0 -- -- 67
2020-06-27 19:00:00 22.6 4 Norte 23 Norte 0 -- -- 59
2020-06-27 18:00:00 20.7 14 Noroeste 23 Norte 0 -- -- 64
2020-06-27 17:00:00 21.7 8 Oeste 27 Sur 0 -- -- 61
2020-06-27 16:00:00 23.2 6 Nordeste 15 Sudoeste 0 -- -- 59
2020-06-27 15:00:00 21.2 9 Norte 22 Norte 0 -- -- 60
2020-06-27 14:00:00 21.2 9 Norte 19 Este 0 -- -- 62
2020-06-27 13:00:00 21.4 8 Nordeste 23 Nordeste 0 -- -- 63
2020-06-27 12:00:00 19.6 4 Noroeste 29 Norte 0 -- -- 70
2020-06-27 11:00:00 17.9 21 Norte 28 Norte 0 -- -- 77
2020-06-27 10:00:00 18.1 8 Nordeste 21 Norte 0 -- -- 67
2020-06-27 09:00:00 15.6 9 Norte 20 Noroeste 0 -- -- 85
2020-06-27 08:00:00 14.1 15 Norte 35 Norte 0 -- -- 91
2020-06-27 07:00:00 13.6 21 Nordeste 26 Nordeste 0 -- -- 94
2020-06-27 06:00:00 14.3 3 Norte 17 Oeste 0 -- -- 91
2020-06-27 05:00:00 14.4 6 Norte 14 Nordeste 0 -- -- 96
2020-06-27 04:00:00 14.3 12 Nordeste 22 Norte 0 -- -- 96
2020-06-27 03:00:00 14.8 5 Norte 21 Sudeste 0 -- -- 93
2020-06-27 02:00:00 15.2 5 Nordeste 11 Norte 0 -- -- 94
2020-06-27 01:00:00 15.8 4 Nordeste 19 Norte 0 -- -- 83
2020-06-27 00:00:00 15.7 7 Norte 10 Norte 0 -- -- 90
2020-06-26 23:00:00 16.1 3 Sudeste 17 Sudeste 0 -- -- 90
2020-06-26 22:00:00 16.5 5 Norte 20 Noroeste 0 -- -- 89
2020-06-26 21:00:00 17.6 15 Norte 22 Noroeste 0 -- -- 83
2020-06-26 20:00:00 20.7 3 Sudeste 15 Nordeste 0 -- -- 65
2020-06-26 19:00:00 20.7 7 Sudoeste 18 Oeste 0 -- -- 67
2020-06-26 18:00:00 22.2 5 Norte 20 Sudoeste 0 -- -- 64
2020-06-26 17:00:00 20.3 9 Noroeste 21 Noroeste 0 -- -- 71
2020-06-26 16:00:00 22.4 6 Norte 19 Sudoeste 0 -- -- 58
2020-06-26 15:00:00 23.3 5 Norte 24 Oeste 0 -- -- 58
2020-06-26 14:00:00 21.3 4 Noroeste 19 Noroeste 0 -- -- 60
2020-06-26 13:00:00 21 5 Norte 17 Noroeste 0 -- -- 65
2020-06-26 12:00:00 20.8 8 Noroeste 22 Este 0 -- -- 67
2020-06-26 11:00:00 18.6 5 Norte 23 Norte 0 -- -- 73
2020-06-26 10:00:00 17 19 Norte 26 Norte 0 -- -- 81
2020-06-26 09:00:00 16.5 5 Nordeste 29 Norte 0 -- -- 77
2020-06-26 08:00:00 15 8 Norte 21 Nordeste 0 -- -- 80
2020-06-26 07:00:00 14.8 17 Nordeste 24 Nordeste 0 -- -- 82
2020-06-26 06:00:00 14.8 5 Nordeste 24 Sur 0 -- -- 87
2020-06-26 05:00:00 15 11 Nordeste 27 Nordeste 0 -- -- 88
2020-06-26 04:00:00 15.3 4 Sudeste 15 Norte 0 -- -- 85
2020-06-26 03:00:00 15.2 10 Norte 18 Sur 0 -- -- 83
2020-06-26 02:00:00 15.3 6 Nordeste 18 Nordeste 0 -- -- 86
2020-06-26 01:00:00 15.4 4 Este 15 Nordeste 0 -- -- 85
2020-06-26 00:00:00 15.8 3 Sudoeste 19 Nordeste 0 -- -- 82
2020-06-25 23:00:00 15.9 6 Nordeste 16 Este 0 -- -- 86
2020-06-25 22:00:00 17.1 2 Nordeste 13 Norte 0 -- -- 85
2020-06-25 21:00:00 18.8 11 Norte 18 Noroeste 0 -- -- 75
2020-06-25 20:00:00 19.9 5 Sudeste 14 Sur 0 -- -- 71
2020-06-25 19:00:00 21 6 Nordeste 27 Norte 0 -- -- 70
2020-06-25 18:00:00 19.2 21 Norte 29 Noroeste 0 -- -- 77
2020-06-25 17:00:00 21.4 12 Noroeste 25 Oeste 0 -- -- 63
2020-06-25 16:00:00 22.3 9 Oeste 24 Sudoeste 0 -- -- 58
2020-06-25 15:00:00 20.9 6 Noroeste 30 Noroeste 0 -- -- 66
2020-06-25 14:00:00 19.1 23 Norte 31 Norte 0 -- -- 70
2020-06-25 13:00:00 20.6 8 Noroeste 19 Nordeste 0 -- -- 64
2020-06-25 12:00:00 20.8 5 Norte 17 Noroeste 0 -- -- 69
2020-06-25 11:00:00 18.4 3 Norte 24 Norte 0 -- -- 80
2020-06-25 10:00:00 17.8 8 Norte 17 Noroeste 0 -- -- 75
2020-06-25 09:00:00 16.2 5 Norte 14 Nordeste 0 -- -- 87
2020-06-25 08:00:00 14.6 5 Noroeste 14 Nordeste 0 -- -- 88
2020-06-25 07:00:00 14.6 14 Norte 23 Nordeste 0 -- -- 87
2020-06-25 06:00:00 14.8 3 Este 15 Sur 0 -- -- 91
2020-06-25 05:00:00 14.6 5 Norte 12 Noroeste 0 -- -- 92
2020-06-25 04:00:00 15.1 2 Noroeste 21 Nordeste 0 -- -- 90
2020-06-25 03:00:00 15.2 11 Nordeste 13 Nordeste 0 -- -- 86
2020-06-25 02:00:00 15.5 4 Norte 9 Noroeste 0 -- -- 92
2020-06-25 01:00:00 16 3 Norte 13 Norte 0 -- -- 94
2020-06-25 00:00:00 15.9 9 Norte 13 Norte 0 -- -- 89
2020-06-24 23:00:00 16.4 4 Noroeste 6 Oeste 0 -- -- 89
2020-06-24 22:00:00 16.9 3 Nordeste 18 Norte 0 -- -- 87
2020-06-24 21:00:00 16.9 15 Norte 24 Norte 0 -- -- 88
2020-06-24 20:00:00 19.5 13 Noroeste 18 Noroeste 0 -- -- 77
2020-06-24 19:00:00 22 5 Norte 21 Sudoeste 0 -- -- 64
2020-06-24 18:00:00 21.6 6 Nordeste 24 Noroeste 0 -- -- 68
2020-06-24 17:00:00 18.4 18 Noroeste 27 Noroeste 0 -- -- 80
2020-06-24 16:00:00 21.5 9 Oeste 19 Noroeste 0 -- -- 67
2020-06-24 15:00:00 23.1 6 Norte 21 Oeste 0 -- -- 61
2020-06-24 14:00:00 22 7 Noroeste 18 Sudoeste 0 -- -- 65
2020-06-24 13:00:00 20.5 5 Noroeste 17 Noroeste 0 -- -- 69
2020-06-24 12:00:00 20.3 5 Norte 19 Sudoeste 0 -- -- 73
2020-06-24 11:00:00 19.3 9 Noroeste 21 Oeste 0 -- -- 76
2020-06-24 10:00:00 17.9 2 Noroeste 7 Noroeste 0 -- -- 78
2020-06-24 09:00:00 16.6 4 Nordeste 13 Nordeste 0 -- -- 80
2020-06-24 08:00:00 14.8 6 Noroeste 15 Nordeste 0 -- -- 91
2020-06-24 07:00:00 14.9 3 Nordeste 18 Norte 0 -- -- 90
2020-06-24 06:00:00 15.4 16 Norte 25 Norte 0 -- -- 91
2020-06-24 05:00:00 15.1 14 Norte 18 Norte 0 -- -- 93
2020-06-24 04:00:00 15.3 7 Norte 18 Noroeste 0 -- -- 94
2020-06-24 03:00:00 15.3 7 Norte 22 Noroeste 0 -- -- 92
2020-06-24 02:00:00 15.8 6 Norte 39 Norte 0 -- -- 91
2020-06-24 01:00:00 16.3 23 Norte 31 Norte 0 -- -- 91
2020-06-24 00:00:00 16.3 0 Calma 14 Norte 0 -- -- 89
2020-06-23 23:00:00 16.8 6 Nordeste 16 Norte 0 -- -- 93
2020-06-23 22:00:00 17.1 4 Norte 23 Norte 0 -- -- 85
2020-06-23 21:00:00 18.3 20 Norte 24 Norte 0 -- -- 79
2020-06-23 20:00:00 21.5 3 Sur 14 Sudeste 0 -- -- 69
2020-06-23 19:00:00 22.7 6 Norte 17 Nordeste 0 -- -- 67
2020-06-23 18:00:00 20.8 13 Norte 27 Noroeste 0 -- -- 74
2020-06-23 17:00:00 21.6 12 Noroeste 21 Noroeste 0 -- -- 66
2020-06-23 16:00:00 21.5 8 Sur 22 Sudeste 0 -- -- 64
2020-06-23 15:00:00 22.5 6 Nordeste 21 Nordeste 0 -- -- 64
2020-06-23 14:00:00 20 13 Norte 36 Norte 0 -- -- 72
2020-06-23 13:00:00 19.9 20 Norte 30 Norte 0 -- -- 70
2020-06-23 12:00:00 20.5 5 Norte 20 Sur 0 -- -- 69
2020-06-23 11:00:00 19.7 7 Nordeste 21 Sudeste 0 -- -- 74
2020-06-23 10:00:00 18 3 Norte 37 Norte 0 -- -- 80
2020-06-23 09:00:00 16.3 26 Norte 33 Nordeste 0 -- -- 80
2020-06-23 08:00:00 16.6 4 Sudeste 16 Sudeste 0 -- -- 65
2020-06-23 07:00:00 15.4 7 Sudeste 26 Sudeste 0 -- -- 78
2020-06-23 06:00:00 15 0 Calma 20 Norte 0 -- -- 89
2020-06-23 05:00:00 16.8 19 Norte 26 Norte 0 -- -- 68
2020-06-23 04:00:00 18.4 8 Norte 11 Norte 0 -- -- 39
2020-06-23 03:00:00 15.7 9 Sudeste 14 Sudeste 0 -- -- 88
2020-06-23 02:00:00 18.4 6 Sudeste 12 Sudeste 0 -- -- 62
2020-06-23 01:00:00 17.6 8 Norte 12 Norte 0 -- -- 58
2020-06-23 00:00:00 20.2 4 Norte 10 Sur 0 -- -- 35
2020-06-22 23:00:00 19.1 4 Sudeste 16 Sudeste 0 -- -- 56
2020-06-22 22:00:00 19.1 0 Calma 9 Nordeste 0 -- -- 73
2020-06-22 21:00:00 20.9 5 Norte 9 Norte 0 -- -- 74
2020-06-22 20:00:00 22.2 5 Este 18 Sudeste 0 -- -- 70
2020-06-22 19:00:00 21.6 6 Sur 15 Este 0 -- -- 71
2020-06-22 18:00:00 20.4 13 Norte 27 Norte 0 -- -- 77
2020-06-22 17:00:00 20.9 16 Norte 23 Norte 0 -- -- 73
2020-06-22 16:00:00 22 5 Noroeste 19 Nordeste 0 -- -- 68
2020-06-22 15:00:00 21 6 Sudoeste 21 Sudoeste 0 -- -- 73
2020-06-22 14:00:00 22.6 5 Noroeste 12 Oeste 0 -- -- 67
2020-06-22 13:00:00 21.7 4 Norte 10 Norte 0 -- -- 71
2020-06-22 12:00:00 21.1 5 Norte 12 Norte 0 -- -- 73
2020-06-22 11:00:00 19.2 4 Norte 18 Sudeste 0 -- -- 79
2020-06-22 10:00:00 18.1 5 Nordeste 18 Sudoeste 0 -- -- 81
2020-06-22 09:00:00 19.2 0 Calma 10 Norte 0 -- -- 33
2020-06-22 08:00:00 14.6 4 Norte 16 Sudeste 0 -- -- 68
2020-06-22 07:00:00 15.7 5 Sur 19 Sudeste 0 -- -- 87
2020-06-22 06:00:00 17.1 2 Noroeste 14 Sudeste 0 -- -- 44
2020-06-22 05:00:00 17.1 4 Norte 12 Sudeste 0 -- -- 58
2020-06-22 04:00:00 17.2 2 Este 10 Sudeste 0 -- -- 59
2020-06-22 03:00:00 17.3 2 Sudeste 9 Sudeste 0 -- -- 67
2020-06-22 02:00:00 18.7 5 Sudeste 10 Sudeste 0 -- -- 62
2020-06-22 01:00:00 17.8 3 Norte 9 Sudeste 0 -- -- 71
2020-06-22 00:00:00 17.4 0 Calma 9 Sudeste 0 -- -- 71
2020-06-21 23:00:00 17.5 3 Nordeste 10 Sudeste 0 -- -- 84
2020-06-21 22:00:00 17.8 6 Sudeste 9 Sudeste 0 -- -- 85
2020-06-21 21:00:00 20.2 3 Nordeste 13 Norte 0 -- -- 76
2020-06-21 20:00:00 21.1 5 Norte 15 Oeste 0 -- -- 73
2020-06-21 19:00:00 21.4 5 Oeste 16 Oeste 0 -- -- 71
2020-06-21 18:00:00 21.5 10 Noroeste 21 Noroeste 0 -- -- 70
2020-06-21 17:00:00 21.7 10 Noroeste 19 Noroeste 0 -- -- 69
2020-06-21 16:00:00 21 9 Noroeste 19 Noroeste 0 -- -- 71
2020-06-21 15:00:00 20.5 6 Noroeste 16 Noroeste 0 -- -- 74
2020-06-21 14:00:00 20.7 6 Noroeste 14 Noroeste 0 -- -- 72
2020-06-21 13:00:00 20.6 6 Noroeste 13 Norte 0 -- -- 76
2020-06-21 12:00:00 19.7 4 Noroeste 9 Oeste 0 -- -- 78
2020-06-21 11:00:00 18.8 3 Norte 8 Norte 0 -- -- 80
2020-06-21 10:00:00 18 4 Noroeste 10 Noroeste 0 -- -- 82
2020-06-21 09:00:00 16.3 5 Nordeste 15 Norte 0 -- -- 82
2020-06-21 08:00:00 14.7 0 Calma 8 Noroeste 0 -- -- 84
2020-06-21 07:00:00 14.3 6 Nordeste 15 Nordeste 0 -- -- 92
2020-06-21 06:00:00 14.8 2 Norte 10 Sudeste 0 -- -- 96
2020-06-21 05:00:00 14.7 3 Norte 10 Norte 0 -- -- 96
2020-06-21 04:00:00 15 4 Noroeste 8 Noroeste 0 -- -- 96
2020-06-21 03:00:00 15.1 2 Norte 9 Sudoeste 0 -- -- 94
2020-06-21 02:00:00 15.3 2 Sudoeste 10 Sudeste 0 -- -- 93
2020-06-21 01:00:00 15.7 2 Nordeste 10 Sudeste 0 -- -- 92
2020-06-21 00:00:00 16.1 0 Calma 8 Sudoeste 0 -- -- 92
2020-06-20 23:00:00 16.4 0 Calma 10 Sudoeste 0 -- -- 83
2020-06-20 22:00:00 17.4 0 Calma 8 Este 0 -- -- 86
2020-06-20 21:00:00 19.6 3 Nordeste 15 Sudoeste 0 -- -- 76
2020-06-20 20:00:00 19.8 9 Sudoeste 21 Sudoeste 0 -- -- 76
2020-06-20 19:00:00 19.9 4 Sudoeste 13 Sudeste 0 -- -- 72
2020-06-20 18:00:00 21.4 6 Oeste 20 Oeste 0 -- -- 71
2020-06-20 17:00:00 22.6 6 Norte 22 Noroeste 0 -- -- 64
2020-06-20 16:00:00 22.1 6 Noroeste 17 Oeste 0 -- -- 67
2020-06-20 15:00:00 20.8 7 Noroeste 19 Noroeste 0 -- -- 76
2020-06-20 14:00:00 22.3 5 Norte 21 Este 0 -- -- 71
2020-06-20 13:00:00 21.2 6 Norte 18 Nordeste 0 -- -- 75
2020-06-20 12:00:00 20.6 5 Norte 14 Sudeste 0 -- -- 75
2020-06-20 11:00:00 19.6 3 Noroeste 12 Oeste 0 -- -- 75
2020-06-20 10:00:00 18.6 3 Norte 13 Sudoeste 0 -- -- 76
2020-06-20 09:00:00 17.3 3 Norte 13 Sur 0 -- -- 78
2020-06-20 08:00:00 15.5 6 Nordeste 26 Sudeste 0 -- -- 86
2020-06-20 07:00:00 15.1 3 Norte 12 Sudeste 0 -- -- 88
2020-06-20 06:00:00 15.2 0 Calma 18 Sur 0 -- -- 87
2020-06-20 05:00:00 15.5 2 Sur 10 Sudeste 0 -- -- 87
2020-06-20 04:00:00 15.5 2 Sudeste 8 Sur 0 -- -- 88
2020-06-20 03:00:00 15.9 2 Sudoeste 8 Sur 0 -- -- 90
2020-06-20 02:00:00 16 3 Sudoeste 9 Sur 0 -- -- 85
2020-06-20 01:00:00 16.3 2 Sudeste 6 Norte 0 -- -- 86
2020-06-20 00:00:00 16.5 5 Nordeste 7 Oeste 0 -- -- 84
2020-06-19 23:00:00 16.8 0 Calma 10 Este 0 -- -- 82
2020-06-19 22:00:00 17.4 0 Calma 9 Sudoeste 0 -- -- 80
2020-06-19 21:00:00 19.3 3 Norte 11 Sudoeste 0 -- -- 75
2020-06-19 20:00:00 19.4 3 Oeste 10 Oeste 0 -- -- 77
2020-06-19 19:00:00 19.7 5 Sudoeste 12 Norte 0 -- -- 79
2020-06-19 18:00:00 19.7 4 Noroeste 14 Noroeste 0 -- -- 82
2020-06-19 17:00:00 20.3 5 Noroeste 18 Noroeste 0 -- -- 79
2020-06-19 16:00:00 20.9 6 Noroeste 15 Noroeste 0 -- -- 76
2020-06-19 15:00:00 22.2 8 Noroeste 18 Oeste 0 -- -- 72
2020-06-19 14:00:00 22.1 6 Noroeste 21 Noroeste 0 -- -- 70
2020-06-19 13:00:00 20.9 3 Noroeste 15 Oeste 0 -- -- 75
2020-06-19 12:00:00 21 4 Norte 17 Noroeste 0 -- -- 72
2020-06-19 11:00:00 19.9 4 Noroeste 11 Noroeste 0 -- -- 73
2020-06-19 10:00:00 18.7 3 Nordeste 9 Norte 0 -- -- 73
2020-06-19 09:00:00 16.9 5 Norte 8 Norte 0 -- -- 75
2020-06-19 08:00:00 15.4 5 Noroeste 7 Noroeste 0 -- -- 92
2020-06-19 07:00:00 15.1 0 Calma 7 Norte 0 -- -- 89
2020-06-19 06:00:00 15.3 0 Calma 5 Sudoeste 0 -- -- 89
2020-06-19 05:00:00 15.6 3 Noroeste 7 Noroeste 0 -- -- 87
2020-06-19 04:00:00 15.8 0 Calma 7 Norte 0 -- -- 86
2020-06-19 03:00:00 15.9 0 Calma 7 Nordeste 0 -- -- 87
2020-06-19 02:00:00 15.9 4 Norte 10 Nordeste 0 -- -- 93
2020-06-19 01:00:00 16.2 0 Calma 11 Sudeste 0 -- -- 94
2020-06-19 00:00:00 16.8 3 Norte 10 Nordeste 0 -- -- 93
2020-06-18 23:00:00 17 3 Sudoeste 9 Sur 0 -- -- 91
2020-06-18 22:00:00 17.4 3 Nordeste 18 Sudeste 0 -- -- 86
2020-06-18 21:00:00 19.3 3 Noroeste 11 Noroeste 0 -- -- 76
2020-06-18 20:00:00 19.5 3 Norte 16 Sudoeste 0 -- -- 80
2020-06-18 19:00:00 19.5 4 Oeste 18 Norte 0 -- -- 77
2020-06-18 18:00:00 20.4 9 Noroeste 17 Noroeste 0 -- -- 74
2020-06-18 17:00:00 20.5 4 Noroeste 16 Sudoeste 0 -- -- 70
2020-06-18 16:00:00 22.2 6 Oeste 21 Sudoeste 0 -- -- 64
2020-06-18 15:00:00 21.8 8 Noroeste 21 Noroeste 0 -- -- 64
2020-06-18 14:00:00 21.7 10 Noroeste 20 Noroeste 0 -- -- 64
2020-06-18 13:00:00 21.2 7 Noroeste 18 Oeste 0 -- -- 63
2020-06-18 12:00:00 19.4 5 Noroeste 13 Noroeste 0 -- -- 72
2020-06-18 11:00:00 18.5 4 Norte 12 Norte 0 -- -- 79
2020-06-18 10:00:00 17.7 8 Norte 14 Sur 0 -- -- 79
2020-06-18 09:00:00 16.9 4 Norte 13 Norte 0 -- -- 78
2020-06-18 08:00:00 14.8 5 Noroeste 13 Este 0 -- -- 82
2020-06-18 07:00:00 15.1 8 Nordeste 10 Nordeste 0 -- -- 76
2020-06-18 06:00:00 14.3 0 Calma 7 Noroeste 0 -- -- 87
2020-06-18 05:00:00 14.7 0 Calma 6 Sur 0 -- -- 88
2020-06-18 04:00:00 15 2 Nordeste 18 Este 0 -- -- 88
2020-06-18 03:00:00 15.4 4 Sudoeste 17 Sudeste 0 -- -- 89
2020-06-18 02:00:00 15.3 8 Nordeste 26 Norte 0 -- -- 90
2020-06-18 01:00:00 15.9 9 Norte 21 Noroeste 0 -- -- 87
2020-06-18 00:00:00 15.5 8 Norte 22 Norte 0 -- -- 94
2020-06-17 23:00:00 15.8 19 Norte 31 Norte 0 -- -- 92
2020-06-17 22:00:00 16.4 21 Norte 32 Norte 0 -- -- 95
2020-06-17 21:00:00 17.1 24 Norte 37 Norte 0 -- -- 93
2020-06-17 20:00:00 19.2 27 Norte 39 Nordeste 0 -- -- 75
2020-06-17 19:00:00 20 31 Norte 45 Norte 0 -- -- 74
2020-06-17 18:00:00 20.4 28 Norte 40 Norte 0 -- -- 74
2020-06-17 17:00:00 20.8 27 Norte 39 Norte 0 -- -- 71
2020-06-17 16:00:00 21.2 27 Norte 40 Norte 0 -- -- 69
2020-06-17 15:00:00 21.3 28 Norte 39 Norte 0 -- -- 65
2020-06-17 14:00:00 21.2 22 Norte 32 Norte 0 -- -- 72
2020-06-17 13:00:00 20.2 12 Norte 26 Norte 0 -- -- 83
2020-06-17 12:00:00 21 8 Norte 12 Norte 0 -- -- 73
2020-06-17 11:00:00 20.4 7 Norte 21 Norte 0 -- -- 75
2020-06-17 10:00:00 19.7 12 Norte 18 Norte 0 -- -- 70
2020-06-17 09:00:00 18.8 12 Norte 21 Norte 0 -- -- 74
2020-06-17 08:00:00 18.4 13 Nordeste 15 Nordeste 0 -- -- 72
2020-06-17 07:00:00 18.1 9 Norte 13 Norte 0 -- -- 73
2020-06-17 06:00:00 18 14 Nordeste 26 Norte 0 -- -- 74
2020-06-17 05:00:00 18.8 5 Sudeste 14 Sudeste 0 -- -- 69
2020-06-17 04:00:00 18.6 13 Norte 16 Norte 0 -- -- 71
2020-06-17 03:00:00 19 5 Nordeste 28 Norte 0 -- -- 70
2020-06-17 02:00:00 19.6 21 Norte 29 Norte 0 -- -- 66
2020-06-17 01:00:00 21.4 19 Norte 44 Norte 0 -- -- 58
2020-06-17 00:00:00 23.4 33 Norte 53 Nordeste 0 -- -- 49
2020-06-16 23:00:00 21.9 29 Norte 49 Nordeste 0.2 -- -- 55
2020-06-16 22:00:00 21.4 39 Norte 71 Norte 0 -- -- 59
2020-06-16 21:00:00 22.8 40 Norte 71 Norte 0 -- -- 50
2020-06-16 20:00:00 23.8 44 Nordeste 80 Nordeste 0 -- -- 46
2020-06-16 19:00:00 23.9 40 Norte 67 Norte 0 -- -- 45
2020-06-16 18:00:00 24.1 36 Norte 55 Nordeste 0 -- -- 47
2020-06-16 17:00:00 24.5 20 Norte 64 Norte 0 -- -- 45
2020-06-16 16:00:00 24.5 34 Nordeste 53 Nordeste 0 -- -- 44
2020-06-16 15:00:00 24.9 22 Nordeste 45 Nordeste 0 -- -- 44
2020-06-16 14:00:00 24.1 22 Norte 35 Norte 0 -- -- 55
2020-06-16 13:00:00 23.1 12 Nordeste 38 Norte 0 -- -- 56
2020-06-16 12:00:00 24.6 11 Norte 23 Norte 0 -- -- 50
2020-06-16 11:00:00 22.9 14 Norte 22 Nordeste 0 -- -- 58
2020-06-16 10:00:00 22 11 Norte 27 Nordeste 0 -- -- 59
2020-06-16 09:00:00 21.5 19 Norte 38 Norte 0 -- -- 64
2020-06-16 08:00:00 21.4 21 Norte 39 Nordeste 0 -- -- 58
2020-06-16 07:00:00 19.4 6 Oeste 17 Este 0 -- -- 70
2020-06-16 06:00:00 18.8 4 Norte 12 Norte 0 -- -- 75
2020-06-16 05:00:00 19 6 Sur 24 Sudeste 0 -- -- 74
2020-06-16 04:00:00 18 6 Nordeste 27 Norte 0 -- -- 83
2020-06-16 03:00:00 18.5 6 Sur 15 Sudeste 0 -- -- 78
2020-06-16 02:00:00 18.1 3 Nordeste 13 Noroeste 0 -- -- 87
2020-06-16 01:00:00 18.7 3 Oeste 22 Norte 0 -- -- 78
2020-06-16 00:00:00 19.3 4 Norte 33 Norte 0 -- -- 76
2020-06-15 23:00:00 19.7 12 Nordeste 28 Nordeste 0 -- -- 66
2020-06-15 22:00:00 19.4 10 Norte 27 Norte 0 -- -- 75
2020-06-15 21:00:00 20.7 17 Norte 34 Norte 0 -- -- 64
2020-06-15 20:00:00 21.9 24 Norte 40 Nordeste 0 -- -- 67
2020-06-15 19:00:00 21.5 10 Este 36 Norte 0 -- -- 70
2020-06-15 18:00:00 20.6 30 Norte 39 Norte 0 -- -- 86
2020-06-15 17:00:00 24.4 28 Norte 38 Norte 0 -- -- 53
2020-06-15 16:00:00 22.5 27 Norte 44 Norte 0 -- -- 69
2020-06-15 15:00:00 23.5 33 Norte 45 Norte 0 -- -- 63
2020-06-15 14:00:00 23.5 30 Norte 53 Nordeste 0 -- -- 65
2020-06-15 13:00:00 22 20 Norte 54 Norte 0 -- -- 70
2020-06-15 12:00:00 21.2 33 Norte 59 Norte 0 -- -- 72
2020-06-15 11:00:00 20.8 36 Norte 51 Nordeste 0 -- -- 70
2020-06-15 10:00:00 20.3 31 Norte 55 Nordeste 0.2 -- -- 70
2020-06-15 09:00:00 20.8 36 Norte 59 Nordeste 0.8 -- -- 65
2020-06-15 08:00:00 19.8 5 Sudeste 24 Nordeste 0 -- -- 76
2020-06-15 07:00:00 18.8 12 Nordeste 40 Sudeste 2.2 -- -- 76
2020-06-15 06:00:00 19.8 15 Norte 29 Norte 0 -- -- 67
2020-06-15 05:00:00 19.8 6 Nordeste 18 Norte 0 -- -- 61
2020-06-15 04:00:00 19.8 12 Norte 19 Norte 0 -- -- 66
2020-06-15 03:00:00 21.8 5 Noroeste 26 Sudeste 0 -- -- 59
2020-06-15 02:00:00 20.9 5 Nordeste 42 Sudeste 0 -- -- 65
2020-06-15 01:00:00 19.5 21 Sudeste 36 Sudeste 0.4 -- -- 69
2020-06-15 00:00:00 21.1 18 Norte 42 Norte 0 -- -- 60
2020-06-14 23:00:00 23.5 9 Este 32 Nordeste 0 -- -- 45
2020-06-14 22:00:00 19.6 9 Norte 25 Nordeste 0 -- -- 61
2020-06-14 21:00:00 22.6 16 Norte 32 Nordeste 0 -- -- 45
2020-06-14 20:00:00 23.6 15 Nordeste 38 Nordeste 0 -- -- 43
2020-06-14 19:00:00 20.7 21 Norte 37 Norte 0 -- -- 59
2020-06-14 18:00:00 19.8 8 Sudeste 23 Sudeste 0 -- -- 69
2020-06-14 17:00:00 22.1 8 Nordeste 35 Sudeste 0 -- -- 34
2020-06-14 16:00:00 20.8 4 Norte 27 Norte 0 -- -- 64
2020-06-14 15:00:00 19.9 19 Norte 30 Noroeste 0 -- -- 76
2020-06-14 14:00:00 20.2 6 Norte 20 Noroeste 0 -- -- 71
2020-06-14 13:00:00 19.9 4 Noroeste 14 Noroeste 0 -- -- 73
2020-06-14 12:00:00 19.7 5 Norte 13 Nordeste 0 -- -- 73
2020-06-14 11:00:00 18.7 5 Norte 10 Norte 0 -- -- 74
2020-06-14 10:00:00 17.3 4 Norte 10 Norte 0 -- -- 79
2020-06-14 09:00:00 16 0 Calma 11 Sudeste 0 -- -- 74
2020-06-14 08:00:00 14 3 Sudeste 8 Sur 0 -- -- 78
2020-06-14 07:00:00 14.1 2 Norte 10 Norte 0 -- -- 84
2020-06-14 06:00:00 14.2 5 Norte 12 Nordeste 0 -- -- 77
2020-06-14 05:00:00 13.9 8 Norte 13 Norte 0 -- -- 87
2020-06-14 04:00:00 14.2 4 Norte 10 Nordeste 0 -- -- 91
2020-06-14 03:00:00 14.7 4 Noroeste 8 Noroeste 0 -- -- 92
2020-06-14 02:00:00 14.8 4 Noroeste 6 Nordeste 0 -- -- 77
2020-06-14 01:00:00 15.3 4 Norte 8 Este 0 -- -- 71
2020-06-14 00:00:00 15.6 0 Calma 6 Sudeste 0 -- -- 75
2020-06-13 23:00:00 16.1 5 Sudeste 8 Norte 0 -- -- 74
2020-06-13 22:00:00 16.5 4 Nordeste 11 Norte 0 -- -- 70
2020-06-13 21:00:00 18.4 8 Norte 18 Norte 0 -- -- 64
2020-06-13 20:00:00 19.9 8 Noroeste 20 Noroeste 0 -- -- 60
2020-06-13 19:00:00 20.1 13 Noroeste 24 Norte 0 -- -- 57
2020-06-13 18:00:00 20.2 14 Noroeste 23 Noroeste 0 -- -- 58
2020-06-13 17:00:00 21 10 Noroeste 21 Oeste 0 -- -- 54
2020-06-13 16:00:00 19.7 13 Noroeste 22 Norte 0 -- -- 61
2020-06-13 15:00:00 19.8 9 Noroeste 20 Noroeste 0 -- -- 59
2020-06-13 14:00:00 19.2 10 Noroeste 19 Noroeste 0 -- -- 65
2020-06-13 13:00:00 19.1 6 Noroeste 15 Noroeste 0 -- -- 68
2020-06-13 12:00:00 18.9 8 Noroeste 21 Sudoeste 0 -- -- 70
2020-06-13 11:00:00 17.9 8 Noroeste 20 Sudoeste 0 -- -- 71
2020-06-13 10:00:00 16.9 3 Norte 10 Nordeste 0 -- -- 68
2020-06-13 09:00:00 15.1 3 Norte 10 Norte 0 -- -- 77
2020-06-13 08:00:00 13.3 3 Noroeste 9 Norte 0 -- -- 87
2020-06-13 07:00:00 12.9 2 Noroeste 6 Oeste 0 -- -- 89
2020-06-13 06:00:00 13.2 0 Calma 11 Sudeste 0 -- -- 86
2020-06-13 05:00:00 13.4 5 Norte 19 Norte 0 -- -- 90
2020-06-13 04:00:00 13.6 12 Norte 17 Norte 0 -- -- 83
2020-06-13 03:00:00 13.6 6 Norte 10 Norte 0 -- -- 88
2020-06-13 02:00:00 13.9 5 Noroeste 10 Norte 0 -- -- 86
2020-06-13 01:00:00 14.5 4 Oeste 9 Sudeste 0 -- -- 78
2020-06-13 00:00:00 14.4 3 Norte 6 Norte 0 -- -- 83
2020-06-12 23:00:00 15 0 Calma 7 Sudeste 0 -- -- 74
2020-06-12 22:00:00 15.3 0 Calma 10 Noroeste 0 -- -- 74
2020-06-12 21:00:00 16.1 10 Norte 16 Norte 0 -- -- 75
2020-06-12 20:00:00 16.4 2 Nordeste 8 Sudoeste 0 -- -- 75
2020-06-12 19:00:00 16.3 3 Norte 10 Sudoeste 0 -- -- 77
2020-06-12 18:00:00 16.5 3 Noroeste 14 Sudoeste 0 -- -- 76
2020-06-12 17:00:00 16.8 4 Oeste 13 Sudoeste 0 -- -- 77
2020-06-12 16:00:00 17.5 4 Noroeste 22 Noroeste 0 -- -- 76
2020-06-12 15:00:00 17.9 8 Noroeste 18 Sudoeste 0 -- -- 69
2020-06-12 14:00:00 17.4 4 Noroeste 14 Noroeste 0 -- -- 71
2020-06-12 13:00:00 17.3 4 Noroeste 16 Noroeste 0 -- -- 74
2020-06-12 12:00:00 17 3 Noroeste 14 Noroeste 0 -- -- 76
2020-06-12 11:00:00 16.9 5 Noroeste 17 Oeste 0 -- -- 76
2020-06-12 10:00:00 15.5 3 Oeste 9 Noroeste 0 -- -- 83
2020-06-12 09:00:00 14.5 0 Calma 10 Sudeste 0 -- -- 91
2020-06-12 08:00:00 13.8 4 Sudeste 12 Este 0 -- -- 91
2020-06-12 07:00:00 13.5 0 Calma 7 Este 0 -- -- 93
2020-06-12 06:00:00 13.6 0 Calma 3 Sudoeste 0 -- -- 88
2020-06-12 05:00:00 14.4 0 Calma 6 Noroeste 0 -- -- 87
2020-06-12 04:00:00 14.8 2 Norte 6 Noroeste 0 -- -- 90
2020-06-12 03:00:00 15 3 Nordeste 8 Oeste 0 -- -- 92
2020-06-12 02:00:00 15.2 4 Noroeste 8 Oeste 0 -- -- 93
2020-06-12 01:00:00 15.4 3 Nordeste 9 Nordeste 0 -- -- 93
2020-06-12 00:00:00 15.6 3 Noroeste 9 Noroeste 0 -- -- 93
2020-06-11 23:00:00 15.7 5 Noroeste 13 Oeste 0 -- -- 93
2020-06-11 22:00:00 15.9 6 Noroeste 18 Noroeste 0 -- -- 91
2020-06-11 21:00:00 16.7 9 Noroeste 23 Noroeste 0 -- -- 84
2020-06-11 20:00:00 18.7 8 Noroeste 20 Noroeste 0 -- -- 74
2020-06-11 19:00:00 19.2 8 Noroeste 19 Noroeste 0 -- -- 64
2020-06-11 18:00:00 19.3 7 Noroeste 22 Norte 0 -- -- 64
2020-06-11 17:00:00 19.3 10 Noroeste 22 Noroeste 0 -- -- 65
2020-06-11 16:00:00 20.6 13 Norte 23 Noroeste 0 -- -- 61
2020-06-11 15:00:00 19.2 12 Norte 20 Noroeste 0 -- -- 70
2020-06-11 14:00:00 19 11 Norte 19 Noroeste 0 -- -- 71
2020-06-11 13:00:00 18.9 5 Noroeste 18 Noroeste 0 -- -- 72
2020-06-11 12:00:00 18 6 Noroeste 15 Noroeste 0 -- -- 78
2020-06-11 11:00:00 17 6 Norte 12 Noroeste 0 -- -- 81
2020-06-11 10:00:00 17.9 3 Norte 6 Norte 0 -- -- 76
2020-06-11 09:00:00 16.4 0 Calma 8 Sudoeste 0 -- -- 77
2020-06-11 08:00:00 15 0 Calma 8 Sudeste 0 -- -- 83
2020-06-11 07:00:00 14.9 0 Calma 8 Nordeste 0 -- -- 87
2020-06-11 06:00:00 15 5 Nordeste 8 Norte 0 -- -- 89
2020-06-11 05:00:00 14.9 3 Norte 9 Norte 0 -- -- 89
2020-06-11 04:00:00 15.2 5 Norte 8 Noroeste 0 -- -- 90
2020-06-11 03:00:00 15.3 4 Norte 8 Norte 0 -- -- 89
2020-06-11 02:00:00 15.4 3 Noroeste 7 Noroeste 0 -- -- 88
2020-06-11 01:00:00 15.4 3 Noroeste 11 Norte 0 -- -- 87
2020-06-11 00:00:00 15.5 5 Norte 10 Norte 0 -- -- 90